createdAt,value
2023-01-17T00:08:12.983Z,69.66
2023-01-17T00:18:17.738Z,69.05
2023-01-17T00:28:19.815Z,68.96
2023-01-17T00:38:25.027Z,69.04
2023-01-17T00:48:45.663Z,69.72
2023-01-17T00:59:07.837Z,69.13
2023-01-17T01:09:28.310Z,69.06
2023-01-17T01:19:50.338Z,68.91
2023-01-17T01:30:10.795Z,68.94
2023-01-17T01:40:17.881Z,68.94
2023-01-17T01:50:21.746Z,69.20
2023-01-17T02:00:29.735Z,69.04
2023-01-17T02:10:34.021Z,68.80
2023-01-17T02:20:57.184Z,69.19
2023-01-17T02:31:04.048Z,69.16
2023-01-17T02:41:08.826Z,69.90
2023-01-17T02:51:41.499Z,69.56
2023-01-17T03:01:51.910Z,69.49
2023-01-17T03:11:57.236Z,69.49
2023-01-17T03:22:00.322Z,69.89
2023-01-17T03:32:05.062Z,69.74
2023-01-17T03:42:08.474Z,69.95
2023-01-17T03:52:12.897Z,69.58
2023-01-17T04:02:16.023Z,69.93
2023-01-17T04:12:20.664Z,69.43
2023-01-17T04:22:23.839Z,69.55
2023-01-17T04:32:29.324Z,69.24
2023-01-17T04:42:32.962Z,69.55
2023-01-17T04:52:37.490Z,69.38
2023-01-17T05:02:40.875Z,69.26
2023-01-17T05:12:45.284Z,68.67
2023-01-17T05:22:55.477Z,68.96
2023-01-17T05:33:00.459Z,69.74
2023-01-17T05:43:04.308Z,70.71
2023-01-17T05:53:10.086Z,70.18
2023-01-17T06:03:13.253Z,71.00
2023-01-17T06:13:21.813Z,71.14
2023-01-17T06:23:25.670Z,71.31
2023-01-17T06:33:30.148Z,70.73
2023-01-17T06:43:34.912Z,71.22
2023-01-17T06:53:40.264Z,70.54
2023-01-17T07:03:43.432Z,70.17
2023-01-17T07:13:51.718Z,70.32
2023-01-17T07:23:54.808Z,69.47
2023-01-17T07:33:59.247Z,69.09
2023-01-17T07:44:02.326Z,69.57
2023-01-17T07:54:07.035Z,69.00
2023-01-17T08:04:10.435Z,68.87
2023-01-17T08:14:14.952Z,69.09
2023-01-17T08:24:18.021Z,69.12
2023-01-17T08:34:22.662Z,69.19
2023-01-17T08:44:25.851Z,68.61
2023-01-17T08:54:30.370Z,65.53
2023-01-17T09:04:33.824Z,66.07
2023-01-17T09:14:38.533Z,66.64
2023-01-17T09:24:42.149Z,64.18
2023-01-17T09:34:47.960Z,58.12
2023-01-17T09:44:52.695Z,56.02
2023-01-17T09:55:01.155Z,55.50
2023-01-17T10:05:44.147Z,55.96
2023-01-17T10:16:09.320Z,57.73
2023-01-17T10:26:16.226Z,58.48
2023-01-17T10:36:23.278Z,57.34
2023-01-17T10:46:28.760Z,57.03
2023-01-17T10:56:35.068Z,58.06
2023-01-17T11:06:49.718Z,56.55
2023-01-17T11:17:04.239Z,56.08
2023-01-17T11:27:09.723Z,56.47
2023-01-17T11:37:19.203Z,56.76
2023-01-17T11:47:22.357Z,58.44
2023-01-17T11:57:28.955Z,56.56
2023-01-17T12:07:39.097Z,55.04
2023-01-17T12:17:58.450Z,55.19
2023-01-17T12:28:13.393Z,55.14
2023-01-17T12:38:32.224Z,55.26
2023-01-17T12:48:39.352Z,49.69
2023-01-17T12:58:46.366Z,50.78
2023-01-17T13:08:52.366Z,49.43
2023-01-17T13:18:58.614Z,49.94
2023-01-17T13:29:08.088Z,50.08
2023-01-17T13:39:32.113Z,49.10
2023-01-17T13:49:51.338Z,50.66
2023-01-17T13:59:56.903Z,52.21
2023-01-17T14:10:00.067Z,54.27
2023-01-17T14:20:36.121Z,53.63
2023-01-17T14:30:40.750Z,56.68
2023-01-17T14:40:51.135Z,55.96
2023-01-17T14:50:58.582Z,56.54
2023-01-17T15:01:03.652Z,57.76
2023-01-17T15:11:10.899Z,56.54
2023-01-17T15:21:17.241Z,56.83
2023-01-17T15:31:25.675Z,56.43
2023-01-17T15:41:31.547Z,59.33
2023-01-17T15:51:38.972Z,57.61
2023-01-17T16:01:44.381Z,58.72
2023-01-17T16:11:49.768Z,59.56
2023-01-17T16:21:56.970Z,59.57
2023-01-17T16:32:07.193Z,59.13
2023-01-17T16:42:12.400Z,59.08
2023-01-17T16:52:17.043Z,59.02
2023-01-17T17:02:20.481Z,59.64
2023-01-17T17:12:24.928Z,60.47
2023-01-17T17:22:28.241Z,65.85
2023-01-17T17:32:32.881Z,70.88
2023-01-17T17:42:36.171Z,73.80
2023-01-17T17:52:40.988Z,74.72
2023-01-17T18:02:45.108Z,73.15
2023-01-17T18:12:50.169Z,70.11
2023-01-17T18:22:53.833Z,68.49
2023-01-17T18:32:58.598Z,69.53
2023-01-17T18:43:01.898Z,68.44
2023-01-17T18:53:06.640Z,68.51
2023-01-17T19:03:09.747Z,69.16
2023-01-17T19:13:14.639Z,73.49
2023-01-17T19:23:18.254Z,74.41
2023-01-17T19:33:25.519Z,76.53
2023-01-17T19:43:29.205Z,73.59
2023-01-17T19:53:35.755Z,72.99
2023-01-17T20:03:39.548Z,72.12
2023-01-17T20:13:44.602Z,71.92
2023-01-17T20:23:48.643Z,72.38
2023-01-17T20:33:54.697Z,71.65
2023-01-17T20:44:01.026Z,73.74
2023-01-17T20:54:06.506Z,73.49
2023-01-17T21:04:10.542Z,73.65
2023-01-17T21:14:15.019Z,73.53
2023-01-17T21:24:19.172Z,74.55
2023-01-17T21:34:25.507Z,76.76
2023-01-17T21:44:36.672Z,72.93
2023-01-17T21:54:58.580Z,72.31
2023-01-17T22:05:01.414Z,72.71
2023-01-17T22:15:07.146Z,71.53
2023-01-17T22:25:10.427Z,71.37
2023-01-17T22:35:15.189Z,71.64
2023-01-17T22:45:19.243Z,71.71
2023-01-17T22:55:23.756Z,72.48
2023-01-17T23:05:27.040Z,71.01
2023-01-17T23:15:49.251Z,71.56
2023-01-17T23:25:52.436Z,70.25
2023-01-17T23:35:57.000Z,69.27
2023-01-17T23:46:00.132Z,68.87
2023-01-17T23:56:08.666Z,68.61
